sensor_id;sensor_type;location;lat;lon;timestamp;temperature;humidity
40323;DHT22;26030;51.164;17.100;2023-09-19T00:02:40;25.70;63.60
40323;DHT22;26030;51.164;17.100;2023-09-19T00:07:43;25.70;63.70
40323;DHT22;26030;51.164;17.100;2023-09-19T00:12:47;25.70;63.80
40323;DHT22;26030;51.164;17.100;2023-09-19T00:17:51;25.70;63.70
40323;DHT22;26030;51.164;17.100;2023-09-19T00:22:57;25.50;63.90
40323;DHT22;26030;51.164;17.100;2023-09-19T00:28:07;25.40;63.80
40323;DHT22;26030;51.164;17.100;2023-09-19T00:33:11;25.40;64.40
40323;DHT22;26030;51.164;17.100;2023-09-19T00:38:18;25.40;64.00
40323;DHT22;26030;51.164;17.100;2023-09-19T00:43:24;25.40;64.10
40323;DHT22;26030;51.164;17.100;2023-09-19T00:48:28;25.40;63.90
40323;DHT22;26030;51.164;17.100;2023-09-19T00:53:31;25.40;63.80
40323;DHT22;26030;51.164;17.100;2023-09-19T00:58:36;25.50;63.80
40323;DHT22;26030;51.164;17.100;2023-09-19T01:03:39;25.50;63.80
40323;DHT22;26030;51.164;17.100;2023-09-19T01:08:44;25.40;64.10
40323;DHT22;26030;51.164;17.100;2023-09-19T01:19:35;25.50;63.70
40323;DHT22;26030;51.164;17.100;2023-09-19T01:25:07;25.50;63.80
40323;DHT22;26030;51.164;17.100;2023-09-19T01:30:32;25.50;63.70
40323;DHT22;26030;51.164;17.100;2023-09-19T01:35:38;25.50;63.80
40323;DHT22;26030;51.164;17.100;2023-09-19T01:40:41;25.40;63.80
40323;DHT22;26030;51.164;17.100;2023-09-19T01:45:51;25.40;64.00
40323;DHT22;26030;51.164;17.100;2023-09-19T01:51:32;25.40;64.00
40323;DHT22;26030;51.164;17.100;2023-09-19T01:56:48;25.40;64.20
40323;DHT22;26030;51.164;17.100;2023-09-19T02:01:54;25.30;64.30
40323;DHT22;26030;51.164;17.100;2023-09-19T02:06:58;25.40;64.30
40323;DHT22;26030;51.164;17.100;2023-09-19T02:12:03;25.40;64.20
40323;DHT22;26030;51.164;17.100;2023-09-19T02:17:06;25.40;64.20
40323;DHT22;26030;51.164;17.100;2023-09-19T02:22:09;25.40;64.20
40323;DHT22;26030;51.164;17.100;2023-09-19T02:27:12;25.40;64.30
40323;DHT22;26030;51.164;17.100;2023-09-19T02:32:18;25.40;64.20
40323;DHT22;26030;51.164;17.100;2023-09-19T02:37:22;25.40;64.50
40323;DHT22;26030;51.164;17.100;2023-09-19T02:42:25;25.50;64.40
40323;DHT22;26030;51.164;17.100;2023-09-19T02:47:28;25.50;64.50
40323;DHT22;26030;51.164;17.100;2023-09-19T02:52:31;25.40;64.50
40323;DHT22;26030;51.164;17.100;2023-09-19T02:57:33;25.40;64.50
40323;DHT22;26030;51.164;17.100;2023-09-19T03:02:36;25.40;64.60
40323;DHT22;26030;51.164;17.100;2023-09-19T03:07:40;25.40;64.90
40323;DHT22;26030;51.164;17.100;2023-09-19T03:12:45;25.40;64.70
40323;DHT22;26030;51.164;17.100;2023-09-19T03:17:49;25.40;64.90
40323;DHT22;26030;51.164;17.100;2023-09-19T03:22:55;25.40;64.80
40323;DHT22;26030;51.164;17.100;2023-09-19T03:27:59;25.40;64.70
40323;DHT22;26030;51.164;17.100;2023-09-19T03:33:02;25.40;64.70
40323;DHT22;26030;51.164;17.100;2023-09-19T03:38:07;25.40;64.70
40323;DHT22;26030;51.164;17.100;2023-09-19T03:43:09;25.40;64.60
40323;DHT22;26030;51.164;17.100;2023-09-19T03:48:12;25.40;64.60
40323;DHT22;26030;51.164;17.100;2023-09-19T03:53:15;25.40;64.60
40323;DHT22;26030;51.164;17.100;2023-09-19T03:58:18;25.30;64.60
40323;DHT22;26030;51.164;17.100;2023-09-19T04:03:21;25.40;64.80
40323;DHT22;26030;51.164;17.100;2023-09-19T04:08:23;25.30;65.10
40323;DHT22;26030;51.164;17.100;2023-09-19T04:13:26;25.30;64.60
40323;DHT22;26030;51.164;17.100;2023-09-19T04:18:29;25.30;64.70
40323;DHT22;26030;51.164;17.100;2023-09-19T04:23:35;25.20;65.80
40323;DHT22;26030;51.164;17.100;2023-09-19T04:28:38;25.10;65.80
40323;DHT22;26030;51.164;17.100;2023-09-19T04:33:41;25.20;65.50
40323;DHT22;26030;51.164;17.100;2023-09-19T04:38:45;25.20;65.80
40323;DHT22;26030;51.164;17.100;2023-09-19T04:43:48;25.20;65.00
40323;DHT22;26030;51.164;17.100;2023-09-19T04:48:53;25.20;64.90
40323;DHT22;26030;51.164;17.100;2023-09-19T04:53:56;25.20;65.00
40323;DHT22;26030;51.164;17.100;2023-09-19T04:58:58;25.20;65.00
40323;DHT22;26030;51.164;17.100;2023-09-19T05:04:02;25.20;65.30
40323;DHT22;26030;51.164;17.100;2023-09-19T05:09:07;25.20;65.10
40323;DHT22;26030;51.164;17.100;2023-09-19T05:14:10;25.20;65.40
40323;DHT22;26030;51.164;17.100;2023-09-19T05:19:14;25.20;64.90
40323;DHT22;26030;51.164;17.100;2023-09-19T05:24:17;25.20;64.70
40323;DHT22;26030;51.164;17.100;2023-09-19T05:29:19;25.20;65.60
40323;DHT22;26030;51.164;17.100;2023-09-19T05:34:22;25.20;65.00
40323;DHT22;26030;51.164;17.100;2023-09-19T05:39:25;25.20;64.70
40323;DHT22;26030;51.164;17.100;2023-09-19T05:44:27;25.10;65.20
40323;DHT22;26030;51.164;17.100;2023-09-19T05:49:30;25.00;66.30
40323;DHT22;26030;51.164;17.100;2023-09-19T05:54:33;25.00;66.00
40323;DHT22;26030;51.164;17.100;2023-09-19T05:59:36;25.10;65.80
40323;DHT22;26030;51.164;17.100;2023-09-19T06:04:39;25.20;65.50
40323;DHT22;26030;51.164;17.100;2023-09-19T06:09:43;25.20;65.60
40323;DHT22;26030;51.164;17.100;2023-09-19T06:14:45;25.20;65.30
40323;DHT22;26030;51.164;17.100;2023-09-19T06:19:48;25.30;66.00
40323;DHT22;26030;51.164;17.100;2023-09-19T06:24:52;25.40;65.90
40323;DHT22;26030;51.164;17.100;2023-09-19T06:29:55;25.40;66.60
40323;DHT22;26030;51.164;17.100;2023-09-19T06:34:58;25.50;66.00
40323;DHT22;26030;51.164;17.100;2023-09-19T06:40:01;25.50;65.90
40323;DHT22;26030;51.164;17.100;2023-09-19T06:45:05;25.50;65.90
40323;DHT22;26030;51.164;17.100;2023-09-19T06:50:08;25.50;66.60
40323;DHT22;26030;51.164;17.100;2023-09-19T06:55:16;25.50;66.10
40323;DHT22;26030;51.164;17.100;2023-09-19T07:00:19;25.50;66.00
40323;DHT22;26030;51.164;17.100;2023-09-19T07:05:24;25.50;66.50
40323;DHT22;26030;51.164;17.100;2023-09-19T07:10:27;25.50;66.00
40323;DHT22;26030;51.164;17.100;2023-09-19T07:15:32;25.60;66.00
40323;DHT22;26030;51.164;17.100;2023-09-19T07:20:38;25.60;65.70
40323;DHT22;26030;51.164;17.100;2023-09-19T07:25:41;25.60;65.80
40323;DHT22;26030;51.164;17.100;2023-09-19T07:30:43;25.60;66.00
40323;DHT22;26030;51.164;17.100;2023-09-19T07:35:46;25.70;65.40
40323;DHT22;26030;51.164;17.100;2023-09-19T07:40:50;25.90;64.80
40323;DHT22;26030;51.164;17.100;2023-09-19T07:45:52;25.90;64.70
40323;DHT22;26030;51.164;17.100;2023-09-19T07:50:55;25.90;64.70
40323;DHT22;26030;51.164;17.100;2023-09-19T07:56:02;25.90;64.60
40323;DHT22;26030;51.164;17.100;2023-09-19T08:01:06;25.90;64.70
40323;DHT22;26030;51.164;17.100;2023-09-19T08:06:10;25.90;64.50
40323;DHT22;26030;51.164;17.100;2023-09-19T08:11:12;25.90;64.70
40323;DHT22;26030;51.164;17.100;2023-09-19T08:16:23;25.80;65.00
40323;DHT22;26030;51.164;17.100;2023-09-19T08:21:27;25.80;65.00
40323;DHT22;26030;51.164;17.100;2023-09-19T08:26:32;25.90;64.80
40323;DHT22;26030;51.164;17.100;2023-09-19T08:31:34;25.90;64.60
40323;DHT22;26030;51.164;17.100;2023-09-19T08:36:37;25.90;64.80
40323;DHT22;26030;51.164;17.100;2023-09-19T08:41:41;25.80;64.80
40323;DHT22;26030;51.164;17.100;2023-09-19T08:46:44;25.80;64.70
40323;DHT22;26030;51.164;17.100;2023-09-19T08:51:47;25.70;64.90
40323;DHT22;26030;51.164;17.100;2023-09-19T08:57:00;25.70;65.00
40323;DHT22;26030;51.164;17.100;2023-09-19T09:02:14;25.80;65.00
40323;DHT22;26030;51.164;17.100;2023-09-19T09:07:18;25.80;64.70
40323;DHT22;26030;51.164;17.100;2023-09-19T09:12:23;25.80;64.40
40323;DHT22;26030;51.164;17.100;2023-09-19T09:17:26;25.80;64.60
40323;DHT22;26030;51.164;17.100;2023-09-19T09:22:30;25.70;64.90
40323;DHT22;26030;51.164;17.100;2023-09-19T09:27:33;25.80;64.80
40323;DHT22;26030;51.164;17.100;2023-09-19T09:32:37;25.70;64.80
40323;DHT22;26030;51.164;17.100;2023-09-19T09:37:58;25.60;65.10
40323;DHT22;26030;51.164;17.100;2023-09-19T09:43:24;25.60;65.50
40323;DHT22;26030;51.164;17.100;2023-09-19T09:48:30;25.60;65.50
40323;DHT22;26030;51.164;17.100;2023-09-19T09:53:34;25.70;64.60
40323;DHT22;26030;51.164;17.100;2023-09-19T09:59:12;25.70;64.40
40323;DHT22;26030;51.164;17.100;2023-09-19T10:04:07;25.70;64.30
40323;DHT22;26030;51.164;17.100;2023-09-19T10:09:11;25.80;64.00
40323;DHT22;26030;51.164;17.100;2023-09-19T10:14:17;25.80;63.70
40323;DHT22;26030;51.164;17.100;2023-09-19T10:24:56;25.90;63.10
40323;DHT22;26030;51.164;17.100;2023-09-19T10:30:05;25.90;63.60
40323;DHT22;26030;51.164;17.100;2023-09-19T10:35:10;25.70;63.80
40323;DHT22;26030;51.164;17.100;2023-09-19T10:40:15;25.90;63.40
40323;DHT22;26030;51.164;17.100;2023-09-19T10:45:19;26.00;63.00
40323;DHT22;26030;51.164;17.100;2023-09-19T10:50:25;26.00;63.20
40323;DHT22;26030;51.164;17.100;2023-09-19T10:55:33;26.00;63.10
40323;DHT22;26030;51.164;17.100;2023-09-19T11:00:53;25.90;63.20
40323;DHT22;26030;51.164;17.100;2023-09-19T11:06:17;25.90;63.40
40323;DHT22;26030;51.164;17.100;2023-09-19T11:22:10;26.10;62.60
40323;DHT22;26030;51.164;17.100;2023-09-19T11:27:14;26.30;62.00
40323;DHT22;26030;51.164;17.100;2023-09-19T11:32:37;26.50;61.60
40323;DHT22;26030;51.164;17.100;2023-09-19T11:38:03;26.60;61.10
40323;DHT22;26030;51.164;17.100;2023-09-19T11:43:27;26.60;61.00
40323;DHT22;26030;51.164;17.100;2023-09-19T11:48:33;26.60;61.10
40323;DHT22;26030;51.164;17.100;2023-09-19T11:53:37;26.70;60.60
40323;DHT22;26030;51.164;17.100;2023-09-19T11:58:44;26.70;60.70
40323;DHT22;26030;51.164;17.100;2023-09-19T12:03:50;26.60;60.90
40323;DHT22;26030;51.164;17.100;2023-09-19T12:08:56;26.70;60.60
40323;DHT22;26030;51.164;17.100;2023-09-19T12:14:02;26.80;60.50
40323;DHT22;26030;51.164;17.100;2023-09-19T12:19:19;26.80;60.00
40323;DHT22;26030;51.164;17.100;2023-09-19T12:24:26;26.80;60.30
40323;DHT22;26030;51.164;17.100;2023-09-19T12:29:32;26.80;60.10
40323;DHT22;26030;51.164;17.100;2023-09-19T12:34:52;26.90;60.30
40323;DHT22;26030;51.164;17.100;2023-09-19T12:40:07;26.80;60.10
40323;DHT22;26030;51.164;17.100;2023-09-19T12:45:24;26.80;60.00
40323;DHT22;26030;51.164;17.100;2023-09-19T12:50:27;27.00;59.60
40323;DHT22;26030;51.164;17.100;2023-09-19T12:55:31;27.10;58.40
40323;DHT22;26030;51.164;17.100;2023-09-19T13:00:40;27.20;56.50
40323;DHT22;26030;51.164;17.100;2023-09-19T13:05:54;27.20;55.90
40323;DHT22;26030;51.164;17.100;2023-09-19T13:11:09;27.20;55.40
40323;DHT22;26030;51.164;17.100;2023-09-19T13:16:15;27.10;55.60
40323;DHT22;26030;51.164;17.100;2023-09-19T13:21:31;27.10;54.60
40323;DHT22;26030;51.164;17.100;2023-09-19T13:26:40;27.20;53.50
40323;DHT22;26030;51.164;17.100;2023-09-19T13:31:45;27.20;52.80
40323;DHT22;26030;51.164;17.100;2023-09-19T13:36:48;27.20;52.90
40323;DHT22;26030;51.164;17.100;2023-09-19T13:41:51;27.20;52.90
40323;DHT22;26030;51.164;17.100;2023-09-19T13:46:54;27.30;52.80
40323;DHT22;26030;51.164;17.100;2023-09-19T13:51:59;27.20;52.50
40323;DHT22;26030;51.164;17.100;2023-09-19T13:57:05;27.10;53.30
40323;DHT22;26030;51.164;17.100;2023-09-19T14:02:10;27.00;53.30
40323;DHT22;26030;51.164;17.100;2023-09-19T14:07:14;26.80;53.30
40323;DHT22;26030;51.164;17.100;2023-09-19T14:12:17;26.80;52.80
40323;DHT22;26030;51.164;17.100;2023-09-19T14:17:20;26.70;51.70
40323;DHT22;26030;51.164;17.100;2023-09-19T14:22:23;26.40;51.40
40323;DHT22;26030;51.164;17.100;2023-09-19T14:27:25;26.30;50.50
40323;DHT22;26030;51.164;17.100;2023-09-19T14:32:28;26.40;50.00
40323;DHT22;26030;51.164;17.100;2023-09-19T14:37:31;26.50;50.30
40323;DHT22;26030;51.164;17.100;2023-09-19T14:42:34;26.50;50.70
40323;DHT22;26030;51.164;17.100;2023-09-19T14:47:47;26.40;50.40
40323;DHT22;26030;51.164;17.100;2023-09-19T14:52:51;26.30;50.30
40323;DHT22;26030;51.164;17.100;2023-09-19T14:57:55;26.50;50.10
40323;DHT22;26030;51.164;17.100;2023-09-19T15:03:00;26.50;50.40
40323;DHT22;26030;51.164;17.100;2023-09-19T15:08:04;26.20;51.40
40323;DHT22;26030;51.164;17.100;2023-09-19T15:13:08;26.20;51.90
40323;DHT22;26030;51.164;17.100;2023-09-19T15:18:11;26.50;52.00
40323;DHT22;26030;51.164;17.100;2023-09-19T15:23:14;26.50;52.50
40323;DHT22;26030;51.164;17.100;2023-09-19T15:28:21;26.50;52.90
40323;DHT22;26030;51.164;17.100;2023-09-19T15:33:24;26.60;53.10
40323;DHT22;26030;51.164;17.100;2023-09-19T15:38:30;26.60;53.30
40323;DHT22;26030;51.164;17.100;2023-09-19T15:43:34;26.50;53.30
40323;DHT22;26030;51.164;17.100;2023-09-19T15:48:37;26.30;53.50
40323;DHT22;26030;51.164;17.100;2023-09-19T15:53:43;26.20;54.20
40323;DHT22;26030;51.164;17.100;2023-09-19T15:58:51;26.20;54.30
40323;DHT22;26030;51.164;17.100;2023-09-19T16:03:57;26.20;54.30
40323;DHT22;26030;51.164;17.100;2023-09-19T16:09:01;26.10;53.60
40323;DHT22;26030;51.164;17.100;2023-09-19T16:14:06;25.90;53.40
40323;DHT22;26030;51.164;17.100;2023-09-19T16:19:10;26.00;54.00
40323;DHT22;26030;51.164;17.100;2023-09-19T16:24:14;26.10;53.70
40323;DHT22;26030;51.164;17.100;2023-09-19T16:29:19;26.30;56.10
40323;DHT22;26030;51.164;17.100;2023-09-19T16:34:26;26.30;54.70
40323;DHT22;26030;51.164;17.100;2023-09-19T16:39:29;26.20;55.00
40323;DHT22;26030;51.164;17.100;2023-09-19T16:44:33;26.30;54.60
40323;DHT22;26030;51.164;17.100;2023-09-19T16:49:36;26.20;54.10
40323;DHT22;26030;51.164;17.100;2023-09-19T16:54:41;26.20;54.00
40323;DHT22;26030;51.164;17.100;2023-09-19T16:59:45;26.10;54.00
40323;DHT22;26030;51.164;17.100;2023-09-19T17:04:49;26.10;53.90
40323;DHT22;26030;51.164;17.100;2023-09-19T17:09:54;26.20;54.30
40323;DHT22;26030;51.164;17.100;2023-09-19T17:15:00;26.00;54.30
40323;DHT22;26030;51.164;17.100;2023-09-19T17:20:05;26.00;54.50
40323;DHT22;26030;51.164;17.100;2023-09-19T17:25:10;26.00;54.50
40323;DHT22;26030;51.164;17.100;2023-09-19T17:30:19;26.20;56.30
40323;DHT22;26030;51.164;17.100;2023-09-19T17:35:24;26.10;55.20
40323;DHT22;26030;51.164;17.100;2023-09-19T17:40:29;26.10;55.40
40323;DHT22;26030;51.164;17.100;2023-09-19T17:45:33;26.20;55.60
40323;DHT22;26030;51.164;17.100;2023-09-19T17:50:37;26.20;55.70
40323;DHT22;26030;51.164;17.100;2023-09-19T17:55:44;26.30;57.80
40323;DHT22;26030;51.164;17.100;2023-09-19T18:00:49;26.30;58.90
40323;DHT22;26030;51.164;17.100;2023-09-19T18:05:54;26.10;57.20
40323;DHT22;26030;51.164;17.100;2023-09-19T18:11:03;26.00;57.80
40323;DHT22;26030;51.164;17.100;2023-09-19T18:16:19;26.00;58.30
40323;DHT22;26030;51.164;17.100;2023-09-19T18:21:28;26.10;57.80
40323;DHT22;26030;51.164;17.100;2023-09-19T18:26:33;26.00;56.40
40323;DHT22;26030;51.164;17.100;2023-09-19T18:31:40;25.90;56.30
40323;DHT22;26030;51.164;17.100;2023-09-19T18:36:45;26.00;56.10
40323;DHT22;26030;51.164;17.100;2023-09-19T18:41:51;26.00;56.00
40323;DHT22;26030;51.164;17.100;2023-09-19T18:46:56;25.90;56.80
40323;DHT22;26030;51.164;17.100;2023-09-19T18:52:07;25.70;56.20
40323;DHT22;26030;51.164;17.100;2023-09-19T18:57:12;25.80;56.30
40323;DHT22;26030;51.164;17.100;2023-09-19T19:02:17;25.80;56.40
40323;DHT22;26030;51.164;17.100;2023-09-19T19:07:30;25.70;56.00
40323;DHT22;26030;51.164;17.100;2023-09-19T19:12:35;26.00;56.30
40323;DHT22;26030;51.164;17.100;2023-09-19T19:17:41;25.90;56.00
40323;DHT22;26030;51.164;17.100;2023-09-19T19:22:50;25.80;56.10
40323;DHT22;26030;51.164;17.100;2023-09-19T19:27:58;25.80;55.80
40323;DHT22;26030;51.164;17.100;2023-09-19T19:33:03;25.70;55.40
40323;DHT22;26030;51.164;17.100;2023-09-19T19:38:09;25.50;55.70
40323;DHT22;26030;51.164;17.100;2023-09-19T19:43:14;25.40;55.70
40323;DHT22;26030;51.164;17.100;2023-09-19T19:48:19;25.40;55.70
40323;DHT22;26030;51.164;17.100;2023-09-19T19:53:25;25.40;55.50
40323;DHT22;26030;51.164;17.100;2023-09-19T19:58:32;25.30;55.10
40323;DHT22;26030;51.164;17.100;2023-09-19T20:03:39;24.80;55.50
40323;DHT22;26030;51.164;17.100;2023-09-19T20:08:44;24.60;55.60
40323;DHT22;26030;51.164;17.100;2023-09-19T20:13:49;24.50;55.20
40323;DHT22;26030;51.164;17.100;2023-09-19T20:18:53;24.30;55.50
40323;DHT22;26030;51.164;17.100;2023-09-19T20:24:09;24.40;55.30
40323;DHT22;26030;51.164;17.100;2023-09-19T20:29:16;24.30;55.10
40323;DHT22;26030;51.164;17.100;2023-09-19T20:34:21;24.20;55.50
40323;DHT22;26030;51.164;17.100;2023-09-19T20:39:25;24.00;56.00
40323;DHT22;26030;51.164;17.100;2023-09-19T20:44:32;24.00;55.80
40323;DHT22;26030;51.164;17.100;2023-09-19T20:49:35;23.90;55.80
40323;DHT22;26030;51.164;17.100;2023-09-19T20:54:38;23.90;55.80
40323;DHT22;26030;51.164;17.100;2023-09-19T20:59:45;23.80;55.90
40323;DHT22;26030;51.164;17.100;2023-09-19T21:04:48;23.80;55.60
40323;DHT22;26030;51.164;17.100;2023-09-19T21:09:52;23.70;55.30
40323;DHT22;26030;51.164;17.100;2023-09-19T21:14:55;23.60;55.00
40323;DHT22;26030;51.164;17.100;2023-09-19T21:19:58;23.50;55.20
40323;DHT22;26030;51.164;17.100;2023-09-19T21:25:01;23.40;55.30
40323;DHT22;26030;51.164;17.100;2023-09-19T21:30:03;23.30;55.40
40323;DHT22;26030;51.164;17.100;2023-09-19T21:35:07;23.30;55.30
40323;DHT22;26030;51.164;17.100;2023-09-19T21:40:11;23.20;55.50
40323;DHT22;26030;51.164;17.100;2023-09-19T21:45:14;23.20;55.30
40323;DHT22;26030;51.164;17.100;2023-09-19T21:50:19;23.30;55.20
40323;DHT22;26030;51.164;17.100;2023-09-19T21:55:26;23.70;54.40
40323;DHT22;26030;51.164;17.100;2023-09-19T22:00:29;23.90;54.00
40323;DHT22;26030;51.164;17.100;2023-09-19T22:05:40;24.00;53.70
40323;DHT22;26030;51.164;17.100;2023-09-19T22:10:47;24.00;54.30
40323;DHT22;26030;51.164;17.100;2023-09-19T22:15:54;24.00;53.90
40323;DHT22;26030;51.164;17.100;2023-09-19T22:21:01;24.10;54.20
40323;DHT22;26030;51.164;17.100;2023-09-19T22:26:14;24.20;54.80
40323;DHT22;26030;51.164;17.100;2023-09-19T22:31:22;24.20;54.50
40323;DHT22;26030;51.164;17.100;2023-09-19T22:36:28;24.00;54.90
40323;DHT22;26030;51.164;17.100;2023-09-19T22:41:40;24.10;54.30
40323;DHT22;26030;51.164;17.100;2023-09-19T22:46:43;24.10;54.00
40323;DHT22;26030;51.164;17.100;2023-09-19T22:51:47;24.10;54.00
40323;DHT22;26030;51.164;17.100;2023-09-19T22:56:54;24.10;54.10
40323;DHT22;26030;51.164;17.100;2023-09-19T23:01:57;24.10;54.30
40323;DHT22;26030;51.164;17.100;2023-09-19T23:07:02;24.10;53.70
40323;DHT22;26030;51.164;17.100;2023-09-19T23:12:07;24.10;54.00
40323;DHT22;26030;51.164;17.100;2023-09-19T23:17:12;24.10;55.00
40323;DHT22;26030;51.164;17.100;2023-09-19T23:22:23;24.10;54.00
40323;DHT22;26030;51.164;17.100;2023-09-19T23:27:29;24.10;54.10
40323;DHT22;26030;51.164;17.100;2023-09-19T23:32:37;24.10;54.10
40323;DHT22;26030;51.164;17.100;2023-09-19T23:37:40;24.00;53.70
40323;DHT22;26030;51.164;17.100;2023-09-19T23:42:43;24.00;54.10
40323;DHT22;26030;51.164;17.100;2023-09-19T23:47:49;24.00;53.80
40323;DHT22;26030;51.164;17.100;2023-09-19T23:52:53;24.00;54.00
40323;DHT22;26030;51.164;17.100;2023-09-19T23:57:55;24.00;53.80
